createdAt,value
2019-05-23T00:02:19.485Z,54.27
2019-05-23T00:04:51.690Z,47.10
2019-05-23T00:07:20.393Z,46.67
2019-05-23T00:09:49.481Z,49.50
2019-05-23T00:12:36.832Z,44.03
2019-05-23T00:15:13.874Z,49.87
2019-05-23T00:17:42.020Z,51.37
2019-05-23T00:20:09.517Z,46.23
2019-05-23T00:22:37.209Z,42.40
2019-05-23T00:25:05.197Z,39.20
2019-05-23T00:27:33.369Z,45.90
2019-05-23T00:30:02.380Z,48.20
2019-05-23T00:32:35.227Z,50.27
2019-05-23T00:35:03.730Z,49.50
2019-05-23T00:37:33.191Z,51.10
2019-05-23T00:40:00.254Z,55.60
2019-05-23T00:42:28.989Z,56.93
2019-05-23T00:44:56.713Z,51.20
2019-05-23T00:47:23.886Z,51.23
2019-05-23T00:49:51.145Z,53.30
2019-05-23T00:52:19.425Z,46.27
2019-05-23T00:54:46.678Z,53.43
2019-05-23T00:57:14.533Z,51.33
2019-05-23T00:59:41.965Z,46.87
2019-05-23T01:02:10.566Z,51.93
2019-05-23T01:04:39.551Z,54.50
2019-05-23T01:07:07.240Z,51.20
2019-05-23T01:09:35.712Z,54.90
2019-05-23T01:12:04.685Z,44.90
2019-05-23T01:14:31.774Z,53.43
2019-05-23T01:17:02.327Z,53.97
2019-05-23T01:19:29.491Z,52.50
2019-05-23T01:21:59.492Z,55.43
2019-05-23T01:24:37.937Z,53.57
2019-05-23T01:27:06.551Z,58.20
2019-05-23T01:29:38.906Z,54.00
2019-05-23T01:32:14.323Z,51.70
2019-05-23T01:34:42.819Z,48.57
2019-05-23T01:37:10.491Z,46.47
2019-05-23T01:39:37.585Z,49.43
2019-05-23T01:42:04.711Z,45.63
2019-05-23T01:44:32.057Z,47.33
2019-05-23T01:46:59.473Z,49.87
2019-05-23T01:49:26.573Z,52.77
2019-05-23T01:51:54.045Z,52.43
2019-05-23T01:54:21.405Z,50.63
2019-05-23T01:56:48.615Z,52.47
2019-05-23T01:59:15.904Z,55.80
2019-05-23T02:01:43.409Z,48.80
2019-05-23T02:04:10.785Z,52.50
2019-05-23T02:06:38.309Z,51.07
2019-05-23T02:09:08.037Z,51.33
2019-05-23T02:11:35.703Z,58.30
2019-05-23T02:14:03.522Z,51.07
2019-05-23T02:16:31.095Z,52.90
2019-05-23T02:18:58.396Z,44.30
2019-05-23T02:21:26.273Z,48.33
2019-05-23T02:23:53.862Z,50.53
2019-05-23T02:26:22.991Z,46.37
2019-05-23T02:28:50.209Z,51.20
2019-05-23T02:31:18.090Z,51.23
2019-05-23T02:33:45.285Z,49.27
2019-05-23T02:36:12.546Z,47.37
2019-05-23T02:38:58.180Z,45.27
2019-05-23T02:41:48.691Z,48.10
2019-05-23T02:44:20.089Z,48.43
2019-05-23T02:47:15.297Z,50.40
2019-05-23T02:49:42.387Z,48.03
2019-05-23T02:52:41.592Z,51.93
2019-05-23T02:55:16.667Z,48.63
2019-05-23T02:57:44.484Z,49.03
2019-05-23T03:00:54.755Z,49.73
2019-05-23T03:03:25.117Z,47.90
2019-05-23T03:05:52.444Z,50.60
2019-05-23T03:08:20.839Z,45.83
2019-05-23T03:10:52.036Z,44.83
2019-05-23T03:13:20.801Z,49.60
2019-05-23T03:15:48.293Z,42.70
2019-05-23T03:18:15.681Z,46.40
2019-05-23T03:20:42.745Z,42.23
2019-05-23T03:23:14.742Z,48.00
2019-05-23T03:26:20.892Z,63.00
2019-05-23T03:28:49.177Z,44.33
2019-05-23T03:31:29.999Z,48.17
2019-05-23T03:33:52.634Z,48.77
2019-05-23T03:36:19.735Z,43.30
2019-05-23T03:38:46.914Z,45.30
2019-05-23T03:41:13.990Z,48.27
2019-05-23T03:43:41.189Z,47.17
2019-05-23T03:46:10.252Z,52.47
2019-05-23T03:48:37.639Z,43.67
2019-05-23T03:51:05.617Z,45.97
2019-05-23T03:53:35.193Z,50.83
2019-05-23T03:56:03.373Z,48.30
2019-05-23T03:58:30.973Z,41.07
2019-05-23T04:01:00.943Z,44.47
2019-05-23T04:03:28.887Z,44.93
2019-05-23T04:05:56.181Z,36.30
2019-05-23T04:08:23.874Z,39.53
2019-05-23T04:10:52.250Z,46.10
2019-05-23T04:13:19.656Z,44.33
2019-05-23T04:15:47.322Z,43.13
2019-05-23T04:18:14.476Z,44.03
2019-05-23T04:20:41.662Z,46.60
2019-05-23T04:23:08.833Z,53.80
2019-05-23T04:25:35.921Z,51.90
2019-05-23T04:28:03.724Z,41.40
2019-05-23T04:30:30.785Z,41.47
2019-05-23T04:32:57.868Z,49.53
2019-05-23T04:35:25.303Z,54.60
2019-05-23T04:37:52.704Z,51.23
2019-05-23T04:40:19.879Z,39.93
2019-05-23T04:42:46.985Z,57.93
2019-05-23T04:45:14.151Z,45.47
2019-05-23T04:47:41.222Z,41.03
2019-05-23T04:50:11.511Z,42.37
2019-05-23T04:52:38.616Z,42.63
2019-05-23T04:55:09.529Z,47.07
2019-05-23T04:57:36.944Z,37.40
2019-05-23T05:00:04.506Z,41.13
2019-05-23T05:02:31.580Z,42.60
2019-05-23T05:07:38.079Z,28.67
2019-05-23T05:10:05.477Z,37.83
2019-05-23T05:12:33.536Z,36.70
2019-05-23T05:15:00.618Z,37.13
2019-05-23T05:17:27.774Z,31.23
2019-05-23T05:19:54.942Z,27.77
2019-05-23T05:22:22.203Z,30.27
2019-05-23T05:24:49.337Z,33.13
2019-05-23T05:29:55.664Z,31.37
2019-05-23T05:35:17.962Z,29.37
2019-05-23T05:37:45.132Z,28.73
2019-05-23T05:40:15.734Z,24.87
2019-05-23T05:42:45.362Z,24.33
2019-05-23T05:45:12.675Z,22.30
2019-05-23T05:47:40.263Z,18.90
2019-05-23T05:50:07.979Z,22.10
2019-05-23T05:52:35.089Z,24.33
2019-05-23T05:55:02.333Z,21.87
2019-05-23T05:57:29.384Z,20.60
2019-05-23T05:59:56.490Z,20.87
2019-05-23T06:02:24.972Z,29.17
2019-05-23T06:04:52.087Z,17.70
2019-05-23T06:07:33.849Z,20.80
2019-05-23T06:10:02.919Z,21.43
2019-05-23T06:12:29.982Z,22.27
2019-05-23T06:14:57.057Z,19.37
2019-05-23T06:17:24.354Z,25.67
2019-05-23T06:19:51.451Z,19.10
2019-05-23T06:22:19.342Z,18.47
2019-05-23T06:24:51.951Z,23.07
2019-05-23T06:27:17.442Z,18.60
2019-05-23T06:32:25.273Z,20.57
2019-05-23T06:34:54.479Z,19.13
2019-05-23T06:37:21.668Z,18.20
2019-05-23T06:39:48.959Z,16.97
2019-05-23T06:42:16.160Z,17.93
2019-05-23T06:44:43.453Z,17.83
2019-05-23T06:47:10.620Z,23.60
2019-05-23T06:49:37.994Z,18.07
2019-05-23T06:52:05.074Z,17.90
2019-05-23T06:54:32.145Z,22.43
2019-05-23T06:56:59.213Z,15.80
2019-05-23T06:59:26.334Z,20.37
2019-05-23T07:01:53.396Z,20.33
2019-05-23T07:04:21.275Z,21.73
2019-05-23T07:06:48.449Z,19.43
2019-05-23T07:09:16.680Z,20.03
2019-05-23T07:11:43.788Z,23.13
2019-05-23T07:14:11.053Z,15.10
2019-05-23T07:16:38.172Z,26.50
2019-05-23T07:19:05.242Z,12.80
2019-05-23T07:21:32.419Z,21.60
2019-05-23T07:23:59.526Z,16.27
2019-05-23T07:26:26.893Z,19.83
2019-05-23T07:28:54.106Z,15.23
2019-05-23T07:31:21.594Z,16.93
2019-05-23T07:34:01.278Z,18.87
2019-05-23T07:36:17.755Z,20.80
2019-05-23T07:38:44.866Z,16.47
2019-05-23T07:41:12.690Z,17.73
2019-05-23T07:43:39.854Z,15.80
2019-05-23T07:46:07.355Z,16.33
2019-05-23T07:48:35.362Z,20.83
2019-05-23T07:51:02.433Z,22.10
2019-05-23T07:53:48.027Z,19.10
2019-05-23T07:56:17.715Z,19.67
2019-05-23T07:58:44.995Z,19.30
2019-05-23T08:01:14.331Z,22.13
2019-05-23T08:03:41.869Z,20.60
2019-05-23T08:06:09.458Z,22.20
2019-05-23T08:08:36.621Z,20.97
2019-05-23T08:11:03.685Z,20.57
2019-05-23T08:13:31.297Z,19.83
2019-05-23T08:15:58.858Z,17.63
2019-05-23T08:18:26.195Z,18.60
2019-05-23T08:20:53.354Z,19.30
2019-05-23T08:23:20.833Z,21.93
2019-05-23T08:25:48.216Z,21.73
2019-05-23T08:28:15.495Z,15.10
2019-05-23T08:30:42.568Z,18.77
2019-05-23T08:33:10.663Z,17.47
2019-05-23T08:35:38.043Z,15.63
2019-05-23T08:38:05.887Z,14.83
2019-05-23T08:40:32.980Z,15.97
2019-05-23T08:43:00.554Z,14.37
2019-05-23T08:45:28.154Z,20.83
2019-05-23T08:47:55.217Z,16.83
2019-05-23T08:50:23.369Z,15.30
2019-05-23T08:52:50.450Z,15.60
2019-05-23T08:55:19.546Z,15.00
2019-05-23T08:57:46.868Z,16.30
2019-05-23T09:00:15.877Z,10.73
2019-05-23T09:02:43.290Z,12.60
2019-05-23T09:05:10.852Z,13.30
2019-05-23T09:07:37.935Z,11.50
2019-05-23T09:10:05.556Z,11.73
2019-05-23T09:12:33.027Z,13.30
2019-05-23T09:15:00.131Z,18.60
2019-05-23T09:17:27.318Z,18.47
2019-05-23T09:19:54.406Z,17.03
2019-05-23T09:22:21.611Z,17.40
2019-05-23T09:24:48.707Z,14.70
2019-05-23T09:27:15.805Z,18.47
2019-05-23T09:29:42.997Z,19.60
2019-05-23T09:32:10.154Z,19.93
2019-05-23T09:34:37.239Z,13.27
2019-05-23T09:37:04.446Z,13.73
2019-05-23T09:39:31.751Z,14.33
2019-05-23T09:41:58.824Z,15.30
2019-05-23T09:44:25.913Z,17.07
2019-05-23T09:46:53.028Z,12.43
2019-05-23T09:49:20.088Z,14.77
2019-05-23T09:51:48.505Z,12.23
2019-05-23T09:54:16.970Z,16.00
2019-05-23T09:56:44.279Z,12.77
2019-05-23T09:59:11.332Z,12.10
2019-05-23T10:01:38.515Z,15.80
2019-05-23T10:04:06.008Z,16.03
2019-05-23T10:06:33.124Z,14.50
2019-05-23T10:09:00.242Z,17.43
2019-05-23T10:11:27.280Z,13.97
2019-05-23T10:13:54.392Z,12.33
2019-05-23T10:16:21.502Z,11.87
2019-05-23T10:18:48.917Z,11.50
2019-05-23T10:21:16.008Z,10.13
2019-05-23T10:23:43.107Z,13.67
2019-05-23T10:26:10.405Z,11.13
2019-05-23T10:28:37.477Z,12.30
2019-05-23T10:31:06.318Z,12.67
2019-05-23T10:33:33.402Z,13.93
2019-05-23T10:36:01.357Z,15.00
2019-05-23T10:38:29.565Z,8.43
2019-05-23T10:40:57.400Z,9.83
2019-05-23T10:43:24.680Z,13.30
2019-05-23T10:45:51.865Z,10.87
2019-05-23T10:48:20.088Z,9.90
2019-05-23T10:50:47.448Z,8.70
2019-05-23T10:53:15.310Z,10.10
2019-05-23T10:55:42.737Z,6.73
2019-05-23T10:58:10.282Z,8.20
2019-05-23T11:00:39.304Z,8.17
2019-05-23T11:03:06.576Z,16.20
2019-05-23T11:05:33.654Z,8.13
2019-05-23T11:08:02.133Z,6.63
2019-05-23T11:10:29.889Z,12.13
2019-05-23T11:12:56.940Z,11.47
2019-05-23T11:15:24.002Z,5.80
2019-05-23T11:17:53.786Z,8.33
2019-05-23T11:20:20.595Z,8.17
2019-05-23T11:22:47.679Z,8.97
2019-05-23T11:25:16.933Z,9.83
2019-05-23T11:27:44.306Z,9.30
2019-05-23T11:30:14.489Z,11.10
2019-05-23T11:32:41.561Z,9.10
2019-05-23T11:35:08.660Z,6.90
2019-05-23T11:37:35.738Z,11.33
2019-05-23T11:40:03.021Z,8.27
2019-05-23T11:42:30.093Z,5.93
2019-05-23T11:44:57.184Z,7.17
2019-05-23T11:47:24.675Z,9.70
2019-05-23T11:49:51.758Z,12.30
2019-05-23T11:52:18.860Z,6.50
2019-05-23T11:54:46.036Z,11.77
2019-05-23T11:57:13.235Z,7.90
2019-05-23T11:59:40.833Z,7.40
2019-05-23T12:02:20.460Z,7.73
2019-05-23T12:04:47.609Z,8.60
2019-05-23T12:07:24.098Z,10.13
2019-05-23T12:09:51.219Z,5.80
2019-05-23T12:12:18.526Z,4.93
2019-05-23T12:14:45.597Z,11.80
2019-05-23T12:17:14.730Z,8.87
2019-05-23T12:19:42.363Z,7.63
2019-05-23T12:22:09.659Z,8.30
2019-05-23T12:24:36.770Z,7.40
2019-05-23T12:27:03.931Z,8.07
2019-05-23T12:29:31.029Z,10.43
2019-05-23T12:31:58.416Z,8.47
2019-05-23T12:34:25.509Z,6.97
2019-05-23T12:36:52.623Z,10.50
2019-05-23T12:39:19.693Z,6.57
2019-05-23T12:41:46.899Z,6.27
2019-05-23T12:44:17.288Z,8.40
2019-05-23T12:46:43.111Z,7.10
2019-05-23T12:49:19.959Z,7.10
2019-05-23T12:51:47.024Z,5.70
2019-05-23T12:54:14.125Z,7.80
2019-05-23T12:56:41.225Z,6.77
2019-05-23T12:59:08.901Z,9.47
2019-05-23T13:01:38.414Z,5.10
2019-05-23T13:04:09.966Z,4.97
2019-05-23T13:06:35.060Z,4.97
2019-05-23T13:09:02.238Z,4.40
2019-05-23T13:11:29.646Z,4.80
2019-05-23T13:13:56.727Z,7.70
2019-05-23T13:16:25.140Z,4.83
2019-05-23T13:18:52.232Z,5.43
2019-05-23T13:21:19.338Z,6.50
2019-05-23T13:23:46.642Z,4.40
2019-05-23T13:26:13.866Z,8.80
2019-05-23T13:28:40.965Z,6.30
2019-05-23T13:31:08.105Z,6.57
2019-05-23T13:33:35.391Z,8.47
2019-05-23T13:36:03.158Z,7.67
2019-05-23T13:38:30.262Z,4.73
2019-05-23T13:40:57.330Z,5.53
2019-05-23T13:43:25.743Z,8.60
2019-05-23T13:45:52.953Z,3.67
2019-05-23T13:48:20.152Z,6.83
2019-05-23T13:50:47.327Z,3.87
2019-05-23T13:53:14.431Z,5.30
2019-05-23T13:55:41.848Z,5.83
2019-05-23T13:58:08.952Z,3.73
2019-05-23T14:00:36.438Z,5.97
2019-05-23T14:03:04.250Z,3.77
2019-05-23T14:05:31.637Z,10.07
2019-05-23T14:08:11.441Z,5.13
2019-05-23T14:10:28.553Z,7.63
2019-05-23T14:12:55.693Z,5.70
2019-05-23T14:15:25.679Z,5.07
2019-05-23T14:17:52.819Z,4.30
2019-05-23T14:20:20.494Z,6.20
2019-05-23T14:22:55.976Z,6.43
2019-05-23T14:25:23.564Z,8.70
2019-05-23T14:28:02.191Z,8.60
2019-05-23T14:30:47.522Z,8.37
2019-05-23T14:33:33.181Z,11.63
2019-05-23T14:36:02.495Z,4.00
2019-05-23T14:38:31.946Z,4.30
2019-05-23T14:40:59.574Z,7.60
2019-05-23T14:43:27.089Z,5.93
2019-05-23T14:46:00.242Z,7.83
2019-05-23T14:48:56.024Z,5.80
2019-05-23T14:51:41.105Z,4.60
2019-05-23T14:54:15.897Z,7.50
2019-05-23T14:56:43.368Z,3.47
2019-05-23T14:59:10.774Z,5.13
2019-05-23T15:01:37.963Z,6.53
2019-05-23T15:04:05.363Z,9.30
2019-05-23T15:06:32.782Z,3.87
2019-05-23T15:08:59.881Z,3.73
2019-05-23T15:11:27.066Z,7.10
2019-05-23T15:13:54.368Z,4.97
2019-05-23T15:16:21.807Z,3.93
2019-05-23T15:18:49.020Z,5.00
2019-05-23T15:21:16.104Z,5.93
2019-05-23T15:23:43.217Z,6.80
2019-05-23T15:26:22.376Z,8.17
2019-05-23T15:28:39.339Z,4.53
2019-05-23T15:31:07.060Z,7.50
2019-05-23T15:33:34.160Z,4.47
2019-05-23T15:36:01.281Z,8.03
2019-05-23T15:38:28.448Z,4.87
2019-05-23T15:40:55.638Z,6.50
2019-05-23T15:43:22.724Z,7.73
2019-05-23T15:45:49.835Z,6.30
2019-05-23T15:48:16.984Z,6.37
2019-05-23T15:50:49.211Z,5.60
2019-05-23T15:53:29.334Z,6.10
2019-05-23T15:56:27.523Z,5.40
2019-05-23T15:58:53.361Z,3.97
2019-05-23T16:01:28.500Z,6.20
2019-05-23T16:04:05.152Z,28.57
2019-05-23T16:06:34.884Z,6.00
2019-05-23T16:09:01.992Z,5.00
2019-05-23T16:11:29.203Z,11.10
2019-05-23T16:13:56.309Z,8.50
2019-05-23T16:16:23.473Z,6.63
2019-05-23T16:18:50.704Z,5.43
2019-05-23T16:21:18.107Z,4.33
2019-05-23T16:23:45.427Z,6.63
2019-05-23T16:26:12.522Z,4.97
2019-05-23T16:28:39.708Z,5.40
2019-05-23T16:31:06.814Z,5.97
2019-05-23T16:33:34.084Z,5.10
2019-05-23T16:36:01.286Z,6.77
2019-05-23T16:38:28.347Z,4.83
2019-05-23T16:40:55.462Z,5.37
2019-05-23T16:43:22.565Z,3.73
2019-05-23T16:45:49.826Z,3.20
2019-05-23T16:48:16.924Z,3.70
2019-05-23T16:50:44.052Z,4.83
2019-05-23T16:53:11.113Z,3.73
2019-05-23T16:55:53.974Z,3.20
2019-05-23T16:58:46.347Z,2.70
2019-05-23T17:01:24.682Z,3.20
2019-05-23T17:04:07.724Z,6.90
2019-05-23T17:06:46.880Z,5.50
2019-05-23T17:09:35.653Z,4.93
2019-05-23T17:12:22.396Z,2.67
2019-05-23T17:14:54.602Z,3.10
2019-05-23T17:18:00.178Z,2.70
2019-05-23T17:20:20.540Z,6.20
2019-05-23T17:22:58.914Z,9.40
2019-05-23T17:25:36.215Z,3.07
2019-05-23T17:28:13.667Z,4.33
2019-05-23T17:30:46.459Z,3.13
2019-05-23T17:33:13.739Z,5.00
2019-05-23T17:35:40.957Z,6.13
2019-05-23T17:38:08.064Z,2.80
2019-05-23T17:40:35.155Z,4.00
2019-05-23T17:43:02.238Z,4.10
2019-05-23T17:45:29.817Z,7.37
2019-05-23T17:47:58.045Z,3.97
2019-05-23T17:50:25.895Z,6.37
2019-05-23T17:52:53.000Z,4.87
2019-05-23T17:55:20.180Z,2.67
2019-05-23T17:57:47.384Z,5.37
2019-05-23T18:00:18.626Z,10.50
2019-05-23T18:02:45.961Z,3.23
2019-05-23T18:05:13.645Z,3.13
2019-05-23T18:10:22.040Z,6.97
2019-05-23T18:12:49.146Z,5.10
2019-05-23T18:17:58.796Z,4.30
2019-05-23T18:23:13.344Z,20.33
2019-05-23T18:25:41.706Z,8.33
2019-05-23T18:28:49.619Z,2.40
2019-05-23T18:31:24.394Z,3.00
2019-05-23T18:33:51.469Z,5.60
2019-05-23T18:36:19.037Z,6.23
2019-05-23T18:38:46.436Z,7.30
2019-05-23T18:41:13.533Z,3.30
2019-05-23T18:43:41.237Z,3.13
2019-05-23T18:46:14.561Z,4.27
2019-05-23T18:48:41.654Z,3.10
2019-05-23T18:51:09.374Z,7.70
2019-05-23T18:53:36.674Z,3.40
2019-05-23T18:56:05.050Z,3.10
2019-05-23T18:58:32.150Z,2.70
2019-05-23T19:01:15.434Z,5.00
2019-05-23T19:03:42.769Z,4.50
2019-05-23T19:06:09.947Z,5.47
2019-05-23T19:08:37.024Z,2.77
2019-05-23T19:11:19.561Z,2.73
2019-05-23T19:13:33.161Z,5.40
2019-05-23T19:16:00.266Z,2.30
2019-05-23T19:18:27.337Z,3.80
2019-05-23T19:20:55.633Z,2.83
2019-05-23T19:23:23.817Z,6.17
2019-05-23T19:25:50.934Z,5.23
2019-05-23T19:28:18.147Z,4.10
2019-05-23T19:30:45.315Z,7.50
2019-05-23T19:33:13.194Z,3.33
2019-05-23T19:35:41.144Z,3.40
2019-05-23T19:38:08.222Z,3.30
2019-05-23T19:40:35.351Z,5.40
2019-05-23T19:43:03.431Z,3.30
2019-05-23T19:45:31.032Z,4.20
2019-05-23T19:47:58.215Z,4.83
2019-05-23T19:50:26.325Z,4.03
2019-05-23T19:52:53.406Z,3.30
2019-05-23T19:55:20.809Z,3.43
2019-05-23T19:57:48.015Z,3.20
2019-05-23T20:00:17.772Z,4.50
2019-05-23T20:02:49.195Z,4.70
2019-05-23T20:05:28.639Z,2.83
2019-05-23T20:07:55.791Z,4.87
2019-05-23T20:10:23.186Z,2.77
2019-05-23T20:12:50.349Z,4.37
2019-05-23T20:15:17.469Z,3.13
2019-05-23T20:17:44.589Z,3.37
2019-05-23T20:20:11.773Z,4.77
2019-05-23T20:22:38.854Z,6.27
2019-05-23T20:25:06.249Z,5.37
2019-05-23T20:27:33.572Z,2.87
2019-05-23T20:30:00.685Z,3.57
2019-05-23T20:32:28.021Z,15.63
2019-05-23T20:34:55.142Z,4.50
2019-05-23T20:37:24.252Z,6.83
2019-05-23T20:39:51.373Z,4.20
2019-05-23T20:42:18.885Z,9.60
2019-05-23T20:44:46.560Z,3.97
2019-05-23T20:47:13.783Z,5.80
2019-05-23T20:49:40.855Z,7.70
2019-05-23T20:52:08.590Z,6.13
2019-05-23T20:54:35.684Z,7.13
2019-05-23T20:57:02.789Z,5.50
2019-05-23T20:59:29.910Z,5.90
2019-05-23T21:01:57.096Z,7.67
2019-05-23T21:04:24.214Z,8.63
2019-05-23T21:06:51.318Z,5.47
2019-05-23T21:09:18.385Z,6.30
2019-05-23T21:11:45.535Z,10.00
2019-05-23T21:14:12.590Z,11.00
2019-05-23T21:16:39.683Z,12.23
2019-05-23T21:19:06.762Z,9.07
2019-05-23T21:21:33.842Z,7.00
2019-05-23T21:24:00.935Z,11.17
2019-05-23T21:26:27.984Z,9.50
2019-05-23T21:28:55.099Z,7.80
2019-05-23T21:31:22.640Z,10.73
2019-05-23T21:33:49.824Z,10.30
2019-05-23T21:36:16.969Z,9.87
2019-05-23T21:38:44.051Z,10.67
2019-05-23T21:41:11.117Z,16.33
2019-05-23T21:43:38.206Z,12.90
2019-05-23T21:46:05.304Z,11.23
2019-05-23T21:48:32.395Z,12.80
2019-05-23T21:50:59.616Z,16.83
2019-05-23T21:53:26.771Z,14.13
2019-05-23T21:55:53.880Z,11.63
2019-05-23T21:58:20.932Z,12.77
2019-05-23T22:01:35.655Z,10.80
2019-05-23T22:04:20.904Z,11.33
2019-05-23T22:06:55.688Z,18.17
2019-05-23T22:09:22.820Z,11.80
2019-05-23T22:11:51.814Z,15.23
2019-05-23T22:14:18.942Z,14.77
2019-05-23T22:16:46.020Z,11.53
2019-05-23T22:19:15.500Z,17.53
2019-05-23T22:21:42.621Z,12.23
2019-05-23T22:24:09.948Z,17.20
2019-05-23T22:26:37.086Z,12.20
2019-05-23T22:29:05.498Z,13.30
2019-05-23T22:31:32.753Z,10.40
2019-05-23T22:34:05.862Z,13.10
2019-05-23T22:36:32.931Z,11.37
2019-05-23T22:39:00.009Z,14.53
2019-05-23T22:41:27.116Z,23.23
2019-05-23T22:43:54.211Z,16.73
2019-05-23T22:46:22.673Z,10.97
2019-05-23T22:48:49.777Z,12.43
2019-05-23T22:51:16.836Z,13.43
2019-05-23T22:53:43.933Z,13.50
2019-05-23T22:56:11.053Z,13.83
2019-05-23T22:58:38.168Z,13.33
2019-05-23T23:01:05.442Z,18.27
2019-05-23T23:03:32.530Z,11.40
2019-05-23T23:05:59.588Z,12.60
2019-05-23T23:08:27.506Z,10.27
2019-05-23T23:10:54.594Z,14.60
2019-05-23T23:13:37.630Z,15.37
2019-05-23T23:15:52.240Z,12.10
2019-05-23T23:18:19.349Z,11.40
2019-05-23T23:20:46.375Z,13.97
2019-05-23T23:23:13.592Z,12.77
2019-05-23T23:25:42.170Z,13.67
2019-05-23T23:28:09.249Z,10.27
2019-05-23T23:30:38.329Z,16.60
2019-05-23T23:33:05.403Z,10.50
2019-05-23T23:35:32.559Z,13.63
2019-05-23T23:37:59.637Z,11.80
2019-05-23T23:40:26.722Z,14.43
2019-05-23T23:42:53.794Z,13.80
2019-05-23T23:45:39.201Z,14.57
2019-05-23T23:48:24.774Z,12.53
2019-05-23T23:51:10.322Z,12.03
2019-05-23T23:53:56.000Z,13.83
2019-05-23T23:56:41.880Z,11.37
2019-05-23T23:59:08.559Z,12.90
